createdAt,value
2023-09-27T00:02:15.142Z,9.68
2023-09-27T00:04:42.210Z,11.70
2023-09-27T00:07:08.751Z,9.02
2023-09-27T00:09:35.272Z,9.57
2023-09-27T00:12:01.730Z,10.38
2023-09-27T00:14:28.637Z,10.07
2023-09-27T00:19:21.726Z,10.90
2023-09-27T00:21:48.298Z,9.98
2023-09-27T00:24:14.818Z,13.93
2023-09-27T00:26:41.223Z,10.27
2023-09-27T00:29:07.693Z,8.40
2023-09-27T00:31:34.242Z,11.02
2023-09-27T00:34:00.706Z,9.40
2023-09-27T00:36:27.158Z,10.63
2023-09-27T00:38:54.886Z,10.52
2023-09-27T00:41:21.412Z,12.70
2023-09-27T00:43:47.873Z,10.38
2023-09-27T00:46:16.368Z,11.93
2023-09-27T00:48:44.568Z,10.38
2023-09-27T00:51:11.575Z,11.98
2023-09-27T00:53:40.712Z,9.02
2023-09-27T00:56:10.346Z,10.63
2023-09-27T00:58:37.874Z,10.13
2023-09-27T01:01:04.638Z,10.95
2023-09-27T01:03:32.694Z,9.93
2023-09-27T01:05:59.389Z,11.65
2023-09-27T01:08:26.779Z,10.20
2023-09-27T01:10:55.904Z,9.05
2023-09-27T01:13:22.806Z,10.13
2023-09-27T01:15:49.603Z,11.82
2023-09-27T01:18:16.800Z,11.18
2023-09-27T01:20:43.359Z,11.18
2023-09-27T01:23:10.002Z,11.95
2023-09-27T01:25:39.471Z,10.05
2023-09-27T01:28:08.295Z,9.48
2023-09-27T01:30:38.077Z,10.05
2023-09-27T01:33:10.944Z,8.60
2023-09-27T01:35:40.342Z,12.77
2023-09-27T01:38:10.483Z,9.55
2023-09-27T01:40:40.787Z,10.25
2023-09-27T01:43:08.272Z,10.20
2023-09-27T01:45:35.374Z,10.23
2023-09-27T01:48:03.201Z,10.98
2023-09-27T01:50:32.278Z,8.52
2023-09-27T01:52:59.573Z,9.60
2023-09-27T01:55:26.211Z,11.82
2023-09-27T01:57:53.944Z,13.73
2023-09-27T02:00:21.409Z,9.52
2023-09-27T02:02:55.816Z,9.00
2023-09-27T02:05:24.547Z,11.38
2023-09-27T02:07:51.170Z,13.73
2023-09-27T02:10:17.642Z,14.43
2023-09-27T02:12:44.611Z,12.70
2023-09-27T02:15:12.880Z,10.02
2023-09-27T02:17:40.474Z,12.50
2023-09-27T02:20:09.598Z,10.25
2023-09-27T02:22:39.067Z,12.88
2023-09-27T02:25:11.520Z,13.25
2023-09-27T02:27:41.825Z,14.55
2023-09-27T02:30:09.437Z,13.90
2023-09-27T02:32:35.964Z,15.68
2023-09-27T02:35:02.936Z,12.60
2023-09-27T02:37:30.409Z,13.25
2023-09-27T02:39:56.833Z,10.73
2023-09-27T02:42:23.698Z,13.07
2023-09-27T02:44:51.594Z,11.82
2023-09-27T02:47:18.093Z,11.52
2023-09-27T02:49:44.918Z,13.30
2023-09-27T02:52:11.401Z,11.98
2023-09-27T02:54:37.858Z,14.10
2023-09-27T02:57:06.658Z,12.05
2023-09-27T02:59:33.119Z,12.95
2023-09-27T03:02:01.443Z,14.55
2023-09-27T03:04:28.626Z,12.02
2023-09-27T03:06:57.241Z,12.55
2023-09-27T03:09:23.706Z,13.02
2023-09-27T03:11:50.723Z,10.55
2023-09-27T03:16:43.599Z,10.40
2023-09-27T03:19:11.215Z,9.52
2023-09-27T03:21:37.651Z,11.20
2023-09-27T03:24:04.467Z,11.48
2023-09-27T03:26:32.103Z,11.07
2023-09-27T03:28:58.576Z,7.32
2023-09-27T03:31:25.078Z,11.18
2023-09-27T03:33:51.476Z,11.60
2023-09-27T03:36:17.888Z,11.15
2023-09-27T03:38:44.282Z,10.00
2023-09-27T03:41:11.134Z,12.43
2023-09-27T03:46:04.859Z,10.20
2023-09-27T03:48:32.656Z,10.57
2023-09-27T03:50:59.796Z,9.57
2023-09-27T03:53:26.471Z,9.13
2023-09-27T03:55:52.955Z,8.63
2023-09-27T03:58:19.439Z,9.30
2023-09-27T04:00:46.146Z,8.57
2023-09-27T04:03:12.910Z,9.05
2023-09-27T04:05:39.595Z,9.02
2023-09-27T04:08:08.621Z,9.23
2023-09-27T04:10:36.261Z,7.55
2023-09-27T04:13:02.803Z,10.00
2023-09-27T04:15:29.387Z,10.07
2023-09-27T04:17:56.034Z,6.80
2023-09-27T04:20:22.466Z,8.95
2023-09-27T04:22:50.997Z,11.07
2023-09-27T04:25:18.265Z,9.00
2023-09-27T04:27:47.052Z,6.40
2023-09-27T04:30:15.087Z,6.75
2023-09-27T04:32:43.895Z,9.43
2023-09-27T04:35:10.710Z,8.88
2023-09-27T04:37:38.093Z,8.93
2023-09-27T04:40:05.395Z,7.47
2023-09-27T04:42:32.036Z,11.50
2023-09-27T04:44:58.484Z,8.25
2023-09-27T04:47:27.973Z,8.88
2023-09-27T04:49:54.375Z,9.75
2023-09-27T04:52:20.970Z,10.32
2023-09-27T04:54:47.540Z,10.05
2023-09-27T04:57:14.154Z,8.85
2023-09-27T04:59:40.573Z,8.98
2023-09-27T05:02:07.019Z,9.38
2023-09-27T05:04:33.792Z,9.07
2023-09-27T05:07:00.173Z,10.07
2023-09-27T05:09:26.587Z,9.27
2023-09-27T05:11:53.090Z,10.98
2023-09-27T05:14:19.494Z,10.23
2023-09-27T05:16:45.998Z,9.15
2023-09-27T05:19:13.454Z,9.98
2023-09-27T05:21:41.224Z,7.38
2023-09-27T05:24:08.554Z,9.27
2023-09-27T05:26:34.982Z,9.57
2023-09-27T05:29:06.526Z,9.07
2023-09-27T05:31:33.239Z,9.63
2023-09-27T05:33:59.664Z,10.00
2023-09-27T05:36:26.336Z,10.07
2023-09-27T05:38:53.017Z,7.35
2023-09-27T05:41:20.416Z,7.88
2023-09-27T05:43:47.122Z,13.57
2023-09-27T05:46:13.518Z,10.98
2023-09-27T05:48:42.321Z,9.68
2023-09-27T05:51:08.740Z,10.00
2023-09-27T05:53:36.899Z,9.77
2023-09-27T05:56:03.772Z,9.25
2023-09-27T05:58:31.113Z,10.70
2023-09-27T06:00:57.622Z,11.00
2023-09-27T06:03:24.200Z,10.93
2023-09-27T06:05:50.704Z,9.20
2023-09-27T06:08:17.105Z,10.27
2023-09-27T06:10:43.563Z,9.07
2023-09-27T06:13:10.260Z,8.68
2023-09-27T06:15:37.503Z,10.40
2023-09-27T06:18:04.541Z,8.20
2023-09-27T06:22:58.100Z,7.85
2023-09-27T06:25:24.649Z,9.27
2023-09-27T06:27:51.089Z,9.00
2023-09-27T06:30:17.872Z,10.50
2023-09-27T06:32:44.616Z,9.73
2023-09-27T06:35:11.437Z,10.45
2023-09-27T06:37:38.032Z,9.07
2023-09-27T06:40:05.023Z,12.30
2023-09-27T06:44:58.053Z,10.68
2023-09-27T06:47:24.531Z,11.57
2023-09-27T06:49:51.101Z,11.65
2023-09-27T06:52:18.495Z,11.13
2023-09-27T06:54:45.929Z,10.95
2023-09-27T06:57:12.432Z,10.13
2023-09-27T06:59:38.932Z,9.32
2023-09-27T07:02:06.554Z,9.32
2023-09-27T07:04:33.133Z,9.90
2023-09-27T07:06:59.597Z,10.18
2023-09-27T07:09:26.296Z,11.73
2023-09-27T07:11:52.677Z,13.93
2023-09-27T07:14:20.928Z,16.05
2023-09-27T07:17:00.270Z,11.93
2023-09-27T07:19:28.480Z,13.77
2023-09-27T07:21:54.884Z,13.15
2023-09-27T07:24:21.293Z,15.25
2023-09-27T07:26:48.657Z,13.48
2023-09-27T07:29:15.382Z,13.75
2023-09-27T07:31:41.821Z,14.60
2023-09-27T07:34:08.181Z,13.57
2023-09-27T07:36:34.621Z,13.60
2023-09-27T07:39:01.212Z,15.10
2023-09-27T07:41:30.883Z,11.18
2023-09-27T07:43:57.289Z,14.55
2023-09-27T07:46:23.836Z,12.90
2023-09-27T07:48:50.298Z,15.55
2023-09-27T07:51:18.032Z,17.08
2023-09-27T07:53:44.607Z,13.90
2023-09-27T07:56:19.835Z,15.52
2023-09-27T07:58:47.132Z,14.73
2023-09-27T08:01:13.910Z,15.27
2023-09-27T08:06:07.032Z,12.82
2023-09-27T08:08:34.907Z,13.60
2023-09-27T08:11:01.673Z,13.75
2023-09-27T08:13:28.114Z,14.18
2023-09-27T08:15:54.756Z,14.95
2023-09-27T08:18:21.240Z,13.80
2023-09-27T08:20:48.176Z,13.20
2023-09-27T08:23:14.769Z,10.68
2023-09-27T08:25:41.262Z,15.82
2023-09-27T08:28:07.919Z,11.70
2023-09-27T08:30:34.470Z,15.50
2023-09-27T08:33:04.896Z,13.13
2023-09-27T08:35:32.975Z,15.70
2023-09-27T08:37:59.642Z,12.35
2023-09-27T08:40:26.309Z,11.75
2023-09-27T08:42:58.023Z,10.77
2023-09-27T08:45:25.247Z,14.40
2023-09-27T08:47:53.129Z,12.13
2023-09-27T08:50:20.440Z,13.55
2023-09-27T08:52:48.788Z,11.93
2023-09-27T08:55:16.595Z,9.98
2023-09-27T08:57:48.900Z,11.50
2023-09-27T09:00:20.632Z,10.40
2023-09-27T09:02:51.085Z,12.15
2023-09-27T09:05:19.748Z,9.93
2023-09-27T09:07:47.456Z,9.48
2023-09-27T09:10:15.349Z,12.18
2023-09-27T09:12:46.319Z,11.05
2023-09-27T09:15:28.285Z,12.02
2023-09-27T09:17:54.835Z,12.05
2023-09-27T09:20:21.328Z,11.57
2023-09-27T09:22:47.907Z,10.20
2023-09-27T09:25:14.418Z,12.32
2023-09-27T09:27:43.455Z,11.07
2023-09-27T09:30:11.832Z,9.20
2023-09-27T09:32:50.038Z,10.50
2023-09-27T09:35:30.531Z,9.75
2023-09-27T09:38:01.806Z,11.45
2023-09-27T09:40:29.976Z,8.73
2023-09-27T09:42:57.904Z,13.65
2023-09-27T09:45:26.351Z,9.43
2023-09-27T09:47:53.018Z,9.77
2023-09-27T09:50:19.921Z,10.00
2023-09-27T09:53:07.647Z,8.30
2023-09-27T09:55:56.209Z,8.52
2023-09-27T09:58:42.410Z,7.57
2023-09-27T10:01:10.848Z,7.97
2023-09-27T10:03:39.213Z,7.70
2023-09-27T10:06:07.503Z,8.95
2023-09-27T10:08:34.031Z,8.52
2023-09-27T10:11:02.402Z,7.57
2023-09-27T10:13:29.451Z,6.80
2023-09-27T10:15:56.617Z,7.47
2023-09-27T10:18:23.397Z,6.90
2023-09-27T10:21:11.261Z,6.03
2023-09-27T10:23:46.982Z,7.57
2023-09-27T10:26:29.109Z,7.32
2023-09-27T10:29:01.997Z,7.22
2023-09-27T10:31:29.727Z,6.55
2023-09-27T10:33:56.220Z,5.97
2023-09-27T10:38:52.095Z,6.80
2023-09-27T10:41:33.954Z,6.13
2023-09-27T10:44:01.626Z,6.00
2023-09-27T10:46:28.100Z,5.63
2023-09-27T10:51:25.227Z,5.63
2023-09-27T10:53:51.980Z,6.20
2023-09-27T10:56:19.321Z,5.75
2023-09-27T10:58:46.047Z,5.40
2023-09-27T11:01:12.581Z,4.50
2023-09-27T11:06:09.803Z,5.88
2023-09-27T11:08:36.536Z,4.65
2023-09-27T11:11:03.284Z,5.15
2023-09-27T11:13:29.794Z,5.40
2023-09-27T11:16:07.885Z,5.63
2023-09-27T11:18:34.959Z,5.40
2023-09-27T11:21:11.708Z,5.28
2023-09-27T11:23:57.647Z,5.05
2023-09-27T11:26:26.224Z,5.78
2023-09-27T11:29:00.931Z,6.15
2023-09-27T11:31:31.224Z,4.45
2023-09-27T11:34:12.777Z,5.47
2023-09-27T11:36:50.198Z,4.80
2023-09-27T11:39:18.752Z,4.47
2023-09-27T11:41:46.250Z,4.32
2023-09-27T11:44:26.522Z,3.92
2023-09-27T11:47:04.753Z,5.88
2023-09-27T11:49:31.260Z,4.93
2023-09-27T11:51:59.616Z,5.05
2023-09-27T11:54:27.805Z,4.97
2023-09-27T11:59:20.950Z,4.28
2023-09-27T12:01:47.411Z,4.28
2023-09-27T12:04:14.102Z,5.32
2023-09-27T12:06:41.167Z,3.83
2023-09-27T12:09:07.895Z,6.25
2023-09-27T12:11:34.404Z,4.75
2023-09-27T12:16:27.361Z,3.53
2023-09-27T12:18:53.976Z,4.75
2023-09-27T12:21:20.650Z,3.60
2023-09-27T12:26:13.624Z,3.60
2023-09-27T12:28:40.186Z,3.63
2023-09-27T12:31:07.086Z,5.05
2023-09-27T12:33:34.889Z,4.25
2023-09-27T12:36:01.410Z,4.80
2023-09-27T12:40:54.795Z,5.50
2023-09-27T12:43:21.401Z,6.72
2023-09-27T12:45:47.935Z,6.70
2023-09-27T12:48:14.573Z,6.65
2023-09-27T12:50:42.271Z,4.93
2023-09-27T12:53:09.589Z,4.88
2023-09-27T12:55:36.013Z,5.90
2023-09-27T12:58:02.508Z,5.60
2023-09-27T13:02:55.407Z,4.57
2023-09-27T13:07:48.447Z,3.63
2023-09-27T13:12:43.931Z,5.63
2023-09-27T13:15:11.132Z,5.15
2023-09-27T13:17:37.973Z,5.30
2023-09-27T13:20:04.901Z,4.78
2023-09-27T13:22:31.666Z,5.22
2023-09-27T13:24:58.086Z,5.40
2023-09-27T13:27:24.771Z,5.18
2023-09-27T13:29:51.535Z,5.50
2023-09-27T13:32:18.939Z,6.10
2023-09-27T13:34:46.525Z,5.07
2023-09-27T13:37:15.216Z,5.30
2023-09-27T13:39:41.888Z,7.25
2023-09-27T13:42:08.341Z,5.07
2023-09-27T13:47:01.222Z,6.50
2023-09-27T13:51:53.927Z,5.65
2023-09-27T13:56:46.783Z,4.97
2023-09-27T14:01:40.037Z,4.97
2023-09-27T14:04:06.746Z,6.60
2023-09-27T14:06:33.159Z,5.30
2023-09-27T14:08:59.910Z,5.05
2023-09-27T14:11:26.824Z,6.28
2023-09-27T14:13:53.665Z,7.13
2023-09-27T14:16:20.718Z,5.40
2023-09-27T14:18:47.754Z,5.68
2023-09-27T14:21:14.380Z,6.93
2023-09-27T14:23:41.606Z,7.03
2023-09-27T14:26:08.654Z,6.13
2023-09-27T14:28:35.180Z,5.93
2023-09-27T14:33:28.775Z,6.95
2023-09-27T14:35:55.412Z,7.68
2023-09-27T14:38:22.145Z,7.47
2023-09-27T14:40:48.628Z,5.85
2023-09-27T14:45:41.796Z,8.52
2023-09-27T14:50:34.772Z,8.23
2023-09-27T14:53:01.521Z,6.03
2023-09-27T14:55:28.170Z,5.95
2023-09-27T14:57:55.808Z,6.03
2023-09-27T15:00:22.528Z,5.78
2023-09-27T15:02:54.859Z,4.88
2023-09-27T15:05:21.577Z,7.28
2023-09-27T15:07:48.128Z,5.75
2023-09-27T15:12:41.696Z,6.75
2023-09-27T15:15:09.808Z,5.70
2023-09-27T15:17:40.101Z,5.57
2023-09-27T15:20:07.224Z,6.05
2023-09-27T15:22:34.680Z,6.32
2023-09-27T15:25:02.057Z,7.07
2023-09-27T15:27:28.782Z,5.43
2023-09-27T15:29:55.253Z,7.90
2023-09-27T15:34:48.815Z,5.38
2023-09-27T15:37:15.588Z,7.22
2023-09-27T15:39:42.020Z,6.97
2023-09-27T15:42:08.414Z,6.78
2023-09-27T15:44:38.854Z,5.72
2023-09-27T15:47:05.401Z,5.82
2023-09-27T15:49:31.929Z,6.10
2023-09-27T15:54:25.180Z,7.72
2023-09-27T15:59:19.292Z,6.88
2023-09-27T16:01:46.793Z,9.38
2023-09-27T16:04:13.578Z,7.05
2023-09-27T16:06:40.001Z,8.05
2023-09-27T16:09:07.262Z,7.03
2023-09-27T16:11:34.032Z,8.35
2023-09-27T16:14:00.747Z,6.93
2023-09-27T16:16:27.612Z,7.15
2023-09-27T16:18:54.166Z,7.50
2023-09-27T16:21:21.011Z,7.97
2023-09-27T16:23:47.736Z,7.07
2023-09-27T16:26:14.166Z,9.00
2023-09-27T16:28:41.582Z,10.10
2023-09-27T16:31:11.885Z,7.28
2023-09-27T16:33:39.284Z,7.85
2023-09-27T16:36:05.888Z,8.25
2023-09-27T16:38:32.351Z,7.30
2023-09-27T16:40:59.346Z,7.15
2023-09-27T16:43:25.845Z,7.47
2023-09-27T16:45:52.641Z,8.73
2023-09-27T16:48:19.356Z,6.35
2023-09-27T16:50:47.498Z,8.32
2023-09-27T16:53:14.016Z,8.60
2023-09-27T16:55:40.911Z,8.63
2023-09-27T16:58:08.103Z,7.65
2023-09-27T17:00:34.696Z,8.65
2023-09-27T17:03:01.280Z,8.98
2023-09-27T17:05:28.060Z,8.65
2023-09-27T17:07:54.618Z,8.23
2023-09-27T17:10:21.359Z,10.85
2023-09-27T17:12:48.104Z,7.82
2023-09-27T17:15:14.808Z,8.60
2023-09-27T17:20:08.311Z,10.02
2023-09-27T17:22:34.804Z,9.55
2023-09-27T17:25:01.476Z,8.27
2023-09-27T17:29:54.313Z,9.38
2023-09-27T17:32:20.804Z,7.53
2023-09-27T17:34:47.276Z,8.63
2023-09-27T17:37:13.943Z,9.43
2023-09-27T17:42:06.914Z,9.27
2023-09-27T17:44:33.435Z,9.00
2023-09-27T17:46:59.926Z,8.55
2023-09-27T17:49:26.829Z,9.32
2023-09-27T17:51:53.359Z,8.48
2023-09-27T17:54:20.597Z,11.45
2023-09-27T17:56:48.114Z,8.55
2023-09-27T17:59:15.376Z,10.65
2023-09-27T18:01:42.600Z,10.27
2023-09-27T18:04:10.885Z,9.65
2023-09-27T18:06:37.847Z,10.00
2023-09-27T18:09:04.328Z,10.43
2023-09-27T18:11:30.748Z,10.75
2023-09-27T18:13:57.251Z,10.05
2023-09-27T18:16:24.935Z,10.38
2023-09-27T18:18:51.452Z,10.65
2023-09-27T18:21:19.581Z,12.07
2023-09-27T18:23:46.456Z,9.43
2023-09-27T18:26:13.391Z,9.48
2023-09-27T18:28:40.064Z,9.85
2023-09-27T18:33:33.299Z,12.90
2023-09-27T18:35:59.738Z,9.13
2023-09-27T18:38:26.210Z,8.27
2023-09-27T18:40:53.519Z,8.73
2023-09-27T18:43:20.197Z,9.07
2023-09-27T18:48:14.805Z,12.35
2023-09-27T18:50:41.219Z,9.32
2023-09-27T18:53:08.141Z,8.88
2023-09-27T18:55:34.556Z,11.32
2023-09-27T18:58:01.092Z,10.90
2023-09-27T19:00:27.476Z,11.25
2023-09-27T19:02:54.002Z,9.80
2023-09-27T19:05:20.467Z,10.75
2023-09-27T19:07:46.896Z,10.32
2023-09-27T19:10:14.496Z,10.32
2023-09-27T19:12:41.736Z,10.82
2023-09-27T19:15:08.423Z,10.13
2023-09-27T19:20:01.739Z,8.65
2023-09-27T19:22:29.012Z,11.55
2023-09-27T19:24:56.183Z,10.43
2023-09-27T19:27:22.661Z,11.35
2023-09-27T19:29:49.131Z,9.45
2023-09-27T19:32:15.626Z,10.93
2023-09-27T19:34:42.431Z,9.90
2023-09-27T19:39:35.199Z,10.52
2023-09-27T19:42:02.230Z,9.52
2023-09-27T19:44:28.717Z,12.00
2023-09-27T19:46:56.211Z,9.15
2023-09-27T19:49:22.681Z,10.65
2023-09-27T19:51:49.137Z,9.57
2023-09-27T19:54:15.593Z,8.60
2023-09-27T19:56:43.066Z,9.07
2023-09-27T19:59:09.660Z,8.32
2023-09-27T20:01:37.250Z,9.05
2023-09-27T20:04:04.947Z,9.98
2023-09-27T20:06:31.734Z,10.85
2023-09-27T20:08:58.189Z,9.80
2023-09-27T20:11:24.874Z,8.60
2023-09-27T20:13:52.080Z,9.45
2023-09-27T20:16:18.713Z,9.60
2023-09-27T20:18:45.114Z,12.05
2023-09-27T20:21:12.364Z,8.35
2023-09-27T20:23:39.927Z,9.25
2023-09-27T20:26:06.416Z,9.27
2023-09-27T20:28:32.899Z,9.32
2023-09-27T20:30:59.417Z,8.73
2023-09-27T20:33:26.071Z,7.53
2023-09-27T20:35:53.418Z,8.85
2023-09-27T20:38:20.040Z,9.23
2023-09-27T20:40:46.457Z,9.82
2023-09-27T20:43:13.119Z,9.10
2023-09-27T20:45:39.860Z,8.93
2023-09-27T20:50:33.429Z,10.18
2023-09-27T20:53:00.006Z,10.63
2023-09-27T20:55:26.438Z,10.68
2023-09-27T20:57:52.847Z,8.05
2023-09-27T21:00:19.244Z,9.57
2023-09-27T21:02:45.709Z,8.52
2023-09-27T21:05:12.167Z,8.32
2023-09-27T21:07:38.903Z,9.10
2023-09-27T21:12:32.142Z,9.38
2023-09-27T21:14:59.445Z,8.93
2023-09-27T21:17:26.017Z,8.52
2023-09-27T21:19:52.608Z,6.90
2023-09-27T21:22:19.193Z,9.52
2023-09-27T21:24:45.817Z,10.10
2023-09-27T21:27:12.435Z,7.28
2023-09-27T21:29:38.983Z,8.32
2023-09-27T21:32:05.826Z,10.85
2023-09-27T21:34:32.508Z,9.25
2023-09-27T21:36:58.982Z,8.90
2023-09-27T21:39:25.530Z,8.00
2023-09-27T21:41:53.538Z,8.32
2023-09-27T21:44:23.610Z,10.30
2023-09-27T21:46:50.891Z,8.70
2023-09-27T21:49:17.815Z,9.25
2023-09-27T21:51:44.288Z,10.18
2023-09-27T21:54:10.775Z,10.45
2023-09-27T21:56:37.206Z,7.88
2023-09-27T21:59:03.729Z,9.32
2023-09-27T22:01:30.252Z,8.07
2023-09-27T22:03:57.127Z,7.88
2023-09-27T22:06:23.923Z,8.82
2023-09-27T22:11:17.415Z,10.60
2023-09-27T22:16:11.463Z,7.97
2023-09-27T22:18:39.947Z,8.68
2023-09-27T22:21:06.455Z,10.18
2023-09-27T22:23:33.334Z,8.73
2023-09-27T22:26:01.266Z,9.50
2023-09-27T22:28:28.435Z,8.52
2023-09-27T22:30:55.664Z,7.97
2023-09-27T22:33:22.584Z,10.43
2023-09-27T22:38:15.644Z,9.00
2023-09-27T22:40:42.122Z,9.52
2023-09-27T22:43:08.591Z,9.55
2023-09-27T22:45:35.115Z,8.18
2023-09-27T22:48:03.841Z,8.07
2023-09-27T22:50:31.784Z,8.50
2023-09-27T22:53:01.819Z,11.07
2023-09-27T22:55:28.604Z,10.18
2023-09-27T23:00:22.595Z,8.63
2023-09-27T23:02:50.714Z,11.52
2023-09-27T23:05:17.618Z,9.07
2023-09-27T23:10:11.502Z,10.77
2023-09-27T23:12:38.026Z,9.60
2023-09-27T23:15:04.799Z,12.13
2023-09-27T23:17:31.421Z,10.45
2023-09-27T23:19:57.975Z,10.30
2023-09-27T23:22:24.699Z,10.90
2023-09-27T23:24:51.240Z,8.60
2023-09-27T23:27:17.758Z,9.60
2023-09-27T23:29:44.715Z,9.60
2023-09-27T23:32:11.794Z,10.75
2023-09-27T23:34:38.660Z,8.75
2023-09-27T23:39:31.658Z,8.63
2023-09-27T23:41:58.407Z,8.43
2023-09-27T23:44:24.993Z,8.55
2023-09-27T23:46:51.565Z,8.55
2023-09-27T23:49:18.430Z,9.43
2023-09-27T23:51:44.962Z,9.90
2023-09-27T23:54:11.821Z,10.65
2023-09-27T23:59:04.882Z,7.93
